createdAt,value
2016-06-29T00:00:20.602Z,1003.92
2016-06-29T00:00:50.606Z,1003.92
2016-06-29T00:01:20.614Z,1003.9
2016-06-29T00:01:50.657Z,1003.93
2016-06-29T00:02:20.697Z,1003.94
2016-06-29T00:02:50.685Z,1003.93
2016-06-29T00:03:20.792Z,1003.95
2016-06-29T00:03:50.687Z,1003.98
2016-06-29T00:04:20.716Z,1003.96
2016-06-29T00:04:50.717Z,1003.96
2016-06-29T00:05:20.717Z,1003.91
2016-06-29T00:05:50.775Z,1003.92
2016-06-29T00:06:21.013Z,1003.94
2016-06-29T00:06:50.787Z,1003.96
2016-06-29T00:07:20.809Z,1004.02
2016-06-29T00:07:50.807Z,1004
2016-06-29T00:08:20.847Z,1004.01
2016-06-29T00:08:50.859Z,1004.03
2016-06-29T00:09:20.866Z,1004.05
2016-06-29T00:09:50.864Z,1004.04
2016-06-29T00:10:20.914Z,1004.08
2016-06-29T00:10:50.925Z,1004.07
2016-06-29T00:11:20.919Z,1004.06
2016-06-29T00:11:50.936Z,1004.01
2016-06-29T00:12:20.966Z,1004.02
2016-06-29T00:12:50.951Z,1003.97
2016-06-29T00:13:20.997Z,1003.98
2016-06-29T00:13:50.991Z,1003.98
2016-06-29T00:14:20.995Z,1003.92
2016-06-29T00:14:51.042Z,1003.94
2016-06-29T00:15:21.060Z,1003.91
2016-06-29T00:15:51.074Z,1003.9
2016-06-29T00:16:21.099Z,1003.88
2016-06-29T00:16:51.066Z,1003.86
2016-06-29T00:17:21.130Z,1003.84
2016-06-29T00:17:51.134Z,1003.81
2016-06-29T00:18:21.119Z,1003.79
2016-06-29T00:18:51.145Z,1003.8
2016-06-29T00:19:21.203Z,1003.78
2016-06-29T00:19:51.308Z,1003.79
2016-06-29T00:20:21.195Z,1003.75
2016-06-29T00:20:51.208Z,1003.75
2016-06-29T00:21:21.214Z,1003.71
2016-06-29T00:21:51.242Z,1003.76
2016-06-29T00:22:21.273Z,1003.75
2016-06-29T00:22:51.257Z,1003.76
2016-06-29T00:23:21.298Z,1003.75
2016-06-29T00:23:51.315Z,1003.78
2016-06-29T00:24:21.318Z,1003.75
2016-06-29T00:24:51.326Z,1003.73
2016-06-29T00:25:21.355Z,1003.74
2016-06-29T00:25:51.383Z,1003.7
2016-06-29T00:26:21.382Z,1003.7
2016-06-29T00:26:51.398Z,1003.68
2016-06-29T00:27:21.393Z,1003.7
2016-06-29T00:27:51.422Z,1003.64
2016-06-29T00:28:21.418Z,1003.62
2016-06-29T00:28:51.469Z,1003.55
2016-06-29T00:29:21.461Z,1003.52
2016-06-29T00:29:51.480Z,1003.49
2016-06-29T00:30:21.494Z,1003.42
2016-06-29T00:30:51.514Z,1003.43
2016-06-29T00:31:21.553Z,1003.4
2016-06-29T00:31:51.549Z,1003.37
2016-06-29T00:32:20.985Z,1003.44
2016-06-29T00:32:51.589Z,1003.43
2016-06-29T00:33:21.639Z,1003.41
2016-06-29T00:33:51.610Z,1003.43
2016-06-29T00:34:21.698Z,1003.43
2016-06-29T00:34:51.622Z,1003.38
2016-06-29T00:35:21.643Z,1003.35
2016-06-29T00:35:51.675Z,1003.26
2016-06-29T00:36:21.688Z,1003.27
2016-06-29T00:36:51.699Z,1003.25
2016-06-29T00:37:21.721Z,1003.23
2016-06-29T00:37:51.771Z,1003.22
2016-06-29T00:38:21.742Z,1003.24
2016-06-29T00:38:51.771Z,1003.23
2016-06-29T00:39:21.792Z,1003.21
2016-06-29T00:39:51.804Z,1003.22
2016-06-29T00:40:21.797Z,1003.2
2016-06-29T00:40:51.839Z,1003.18
2016-06-29T00:41:21.830Z,1003.21
2016-06-29T00:41:51.886Z,1003.17
2016-06-29T00:42:21.879Z,1003.22
2016-06-29T00:42:51.907Z,1003.2
2016-06-29T00:43:21.902Z,1003.15
2016-06-29T00:43:51.903Z,1003.17
2016-06-29T00:44:21.939Z,1003.15
2016-06-29T00:44:51.917Z,1003.15
2016-06-29T00:45:21.395Z,1003.14
2016-06-29T00:45:51.963Z,1003.15
2016-06-29T00:46:21.374Z,1003.13
2016-06-29T00:46:51.990Z,1003.13
2016-06-29T00:47:21.984Z,1003.14
2016-06-29T00:47:52.033Z,1003.19
2016-06-29T00:48:21.471Z,1003.22
2016-06-29T00:48:52.079Z,1003.25
2016-06-29T00:49:22.150Z,1003.24
2016-06-29T00:49:52.103Z,1003.24
2016-06-29T00:50:22.110Z,1003.28
2016-06-29T00:50:52.133Z,1003.29
2016-06-29T00:51:22.143Z,1003.29
2016-06-29T00:51:52.168Z,1003.31
2016-06-29T00:52:22.179Z,1003.3
2016-06-29T00:52:52.177Z,1003.26
2016-06-29T00:53:22.215Z,1003.24
2016-06-29T00:53:52.211Z,1003.21
2016-06-29T00:54:22.226Z,1003.17
2016-06-29T00:54:52.256Z,1003.16
2016-06-29T00:55:22.267Z,1003.14
2016-06-29T00:55:52.275Z,1003.16
2016-06-29T00:56:22.290Z,1003.22
2016-06-29T00:56:52.287Z,1003.22
2016-06-29T00:57:22.329Z,1003.24
2016-06-29T00:57:52.357Z,1003.28
2016-06-29T00:58:22.388Z,1003.28
2016-06-29T00:58:52.357Z,1003.28
2016-06-29T00:59:22.379Z,1003.3
2016-06-29T00:59:52.389Z,1003.32
2016-06-29T01:00:22.438Z,1003.29
2016-06-29T01:00:52.448Z,1003.28
2016-06-29T01:01:22.442Z,1003.25
2016-06-29T01:01:52.491Z,1003.24
2016-06-29T01:02:22.468Z,1003.26
2016-06-29T01:02:52.511Z,1003.21
2016-06-29T01:03:22.500Z,1003.19
2016-06-29T01:03:52.557Z,1003.24
2016-06-29T01:04:22.535Z,1003.2
2016-06-29T01:04:52.530Z,1003.13
2016-06-29T01:05:21.971Z,1003.12
2016-06-29T01:05:52.614Z,1003.06
2016-06-29T01:06:22.589Z,1003.05
2016-06-29T01:06:52.652Z,1003.05
2016-06-29T01:07:22.627Z,1003.04
2016-06-29T01:07:52.076Z,1003.02
2016-06-29T01:08:22.683Z,1003.03
2016-06-29T01:08:52.710Z,1003.03
2016-06-29T01:09:22.735Z,1003.06
2016-06-29T01:09:52.136Z,1003.05
2016-06-29T01:10:22.738Z,1003.02
2016-06-29T01:10:52.754Z,1002.97
2016-06-29T01:11:22.179Z,1003.02
2016-06-29T01:11:52.160Z,1003
2016-06-29T01:12:22.809Z,1002.98
2016-06-29T01:12:52.822Z,1002.94
2016-06-29T01:13:22.823Z,1002.95
2016-06-29T01:13:52.854Z,1002.9
2016-06-29T01:14:22.867Z,1002.97
2016-06-29T01:14:52.894Z,1002.92
2016-06-29T01:15:22.930Z,1002.92
2016-06-29T01:15:52.892Z,1002.92
2016-06-29T01:16:22.911Z,1002.9
2016-06-29T01:16:52.919Z,1002.86
2016-06-29T01:17:22.910Z,1002.85
2016-06-29T01:17:52.950Z,1002.85
2016-06-29T01:18:22.992Z,1002.82
2016-06-29T01:18:52.960Z,1002.83
2016-06-29T01:19:22.986Z,1002.76
2016-06-29T01:19:53.018Z,1002.8
2016-06-29T01:20:23.054Z,1002.77
2016-06-29T01:20:53.060Z,1002.75
2016-06-29T01:21:23.076Z,1002.72
2016-06-29T01:21:52.499Z,1002.76
2016-06-29T01:22:23.154Z,1002.74
2016-06-29T01:22:53.113Z,1002.69
2016-06-29T01:23:23.145Z,1002.67
2016-06-29T01:23:53.141Z,1002.7
2016-06-29T01:24:23.157Z,1002.7
2016-06-29T01:24:53.190Z,1002.73
2016-06-29T01:25:23.196Z,1002.77
2016-06-29T01:25:53.195Z,1002.77
2016-06-29T01:26:23.200Z,1002.76
2016-06-29T01:26:53.256Z,1002.77
2016-06-29T01:27:23.240Z,1002.76
2016-06-29T01:27:52.652Z,1002.77
2016-06-29T01:28:23.250Z,1002.75
2016-06-29T01:28:53.289Z,1002.75
2016-06-29T01:29:23.287Z,1002.73
2016-06-29T01:29:53.310Z,1002.74
2016-06-29T01:30:23.340Z,1002.7
2016-06-29T01:30:53.348Z,1002.74
2016-06-29T01:31:23.351Z,1002.71
2016-06-29T01:31:53.369Z,1002.71
2016-06-29T01:32:23.390Z,1002.73
2016-06-29T01:32:53.389Z,1002.68
2016-06-29T01:33:23.400Z,1002.68
2016-06-29T01:33:53.414Z,1002.71
2016-06-29T01:34:23.465Z,1002.71
2016-06-29T01:34:53.467Z,1002.71
2016-06-29T01:35:23.481Z,1002.7
2016-06-29T01:35:53.530Z,1002.69
2016-06-29T01:36:23.523Z,1002.72
2016-06-29T01:36:53.525Z,1002.71
2016-06-29T01:37:23.539Z,1002.73
2016-06-29T01:37:53.558Z,1002.71
2016-06-29T01:38:23.558Z,1002.71
2016-06-29T01:38:53.585Z,1002.68
2016-06-29T01:39:23.608Z,1002.57
2016-06-29T01:39:53.602Z,1002.59
2016-06-29T01:40:23.638Z,1002.56
2016-06-29T01:40:53.650Z,1002.57
2016-06-29T01:41:23.662Z,1002.59
2016-06-29T01:41:53.675Z,1002.62
2016-06-29T01:42:23.967Z,1002.64
2016-06-29T01:42:53.717Z,1002.67
2016-06-29T01:43:23.725Z,1002.68
2016-06-29T01:43:53.724Z,1002.67
2016-06-29T01:44:23.762Z,1002.66
2016-06-29T01:44:53.777Z,1002.7
2016-06-29T01:45:23.787Z,1002.73
2016-06-29T01:45:53.783Z,1002.8
2016-06-29T01:46:23.809Z,1002.81
2016-06-29T01:46:53.832Z,1002.84
2016-06-29T01:47:23.850Z,1002.82
2016-06-29T01:47:53.847Z,1002.83
2016-06-29T01:48:23.871Z,1002.86
2016-06-29T01:48:53.898Z,1002.89
2016-06-29T01:49:23.887Z,1002.94
2016-06-29T01:49:53.894Z,1002.93
2016-06-29T01:50:23.925Z,1002.98
2016-06-29T01:50:53.940Z,1002.96
2016-06-29T01:51:23.950Z,1002.97
2016-06-29T01:51:53.997Z,1002.99
2016-06-29T01:52:24.010Z,1003.02
2016-06-29T01:52:54.015Z,1003.05
2016-06-29T01:53:24.138Z,1002.99
2016-06-29T01:53:54.053Z,1002.92
2016-06-29T01:54:24.031Z,1002.88
2016-06-29T01:54:54.046Z,1002.84
2016-06-29T01:55:24.062Z,1002.81
2016-06-29T01:55:54.091Z,1002.77
2016-06-29T01:56:24.095Z,1002.76
2016-06-29T01:56:54.130Z,1002.77
2016-06-29T01:57:24.145Z,1002.74
2016-06-29T01:57:54.177Z,1002.78
2016-06-29T01:58:24.148Z,1002.76
2016-06-29T01:58:54.215Z,1002.75
2016-06-29T01:59:24.183Z,1002.73
2016-06-29T01:59:54.230Z,1002.78
2016-06-29T02:00:24.218Z,1002.78
2016-06-29T02:00:54.237Z,1002.79
2016-06-29T02:01:24.274Z,1002.77
2016-06-29T02:01:54.275Z,1002.78
2016-06-29T02:02:24.285Z,1002.79
2016-06-29T02:02:54.293Z,1002.81
2016-06-29T02:03:24.316Z,1002.78
2016-06-29T02:03:54.339Z,1002.82
2016-06-29T02:04:24.346Z,1002.79
2016-06-29T02:04:54.382Z,1002.85
2016-06-29T02:05:24.361Z,1002.9
2016-06-29T02:05:54.421Z,1002.92
2016-06-29T02:06:24.395Z,1002.93
2016-06-29T02:06:54.436Z,1002.9
2016-06-29T02:07:24.438Z,1002.94
2016-06-29T02:07:54.457Z,1002.9
2016-06-29T02:08:24.471Z,1002.88
2016-06-29T02:08:54.481Z,1002.88
2016-06-29T02:09:24.567Z,1002.88
2016-06-29T02:09:54.522Z,1002.92
2016-06-29T02:10:24.518Z,1002.9
2016-06-29T02:10:54.553Z,1002.91
2016-06-29T02:11:24.597Z,1002.89
2016-06-29T02:11:54.594Z,1002.88
2016-06-29T02:12:24.592Z,1002.92
2016-06-29T02:12:54.629Z,1002.92
2016-06-29T02:13:24.617Z,1002.96
2016-06-29T02:13:54.650Z,1002.91
2016-06-29T02:14:24.042Z,1002.88
2016-06-29T02:14:54.651Z,1002.89
2016-06-29T02:15:24.076Z,1002.94
2016-06-29T02:15:54.688Z,1002.89
2016-06-29T02:16:24.091Z,1002.89
2016-06-29T02:16:54.715Z,1002.86
2016-06-29T02:17:24.759Z,1002.86
2016-06-29T02:17:54.778Z,1002.88
2016-06-29T02:18:24.753Z,1002.89
2016-06-29T02:18:54.822Z,1002.85
2016-06-29T02:19:24.794Z,1002.82
2016-06-29T02:19:54.847Z,1002.85
2016-06-29T02:20:24.845Z,1002.83
2016-06-29T02:20:54.917Z,1002.88
2016-06-29T02:21:24.251Z,1002.87
2016-06-29T02:21:54.894Z,1002.86
2016-06-29T02:22:24.876Z,1002.89
2016-06-29T02:22:54.891Z,1002.88
2016-06-29T02:23:23.723Z,1002.87
2016-06-29T02:23:54.927Z,1002.88
2016-06-29T02:24:24.961Z,1002.88
2016-06-29T02:24:54.957Z,1002.88
2016-06-29T02:25:24.974Z,1002.89
2016-06-29T02:25:55.009Z,1002.87
2016-06-29T02:26:24.446Z,1002.87
2016-06-29T02:26:55.019Z,1002.91
2016-06-29T02:27:25.046Z,1002.92
2016-06-29T02:27:55.070Z,1002.9
2016-06-29T02:28:25.075Z,1002.88
2016-06-29T02:28:55.079Z,1002.94
2016-06-29T02:29:25.107Z,1002.92
2016-06-29T02:29:55.106Z,1002.91
2016-06-29T02:30:25.151Z,1002.97
2016-06-29T02:30:55.144Z,1002.99
2016-06-29T02:31:25.178Z,1002.97
2016-06-29T02:31:55.191Z,1003.02
2016-06-29T02:32:25.206Z,1003.03
2016-06-29T02:32:55.195Z,1003.02
2016-06-29T02:33:25.393Z,1003.02
2016-06-29T02:33:55.238Z,1003.03
2016-06-29T02:34:25.286Z,1003.05
2016-06-29T02:34:55.285Z,1003.05
2016-06-29T02:35:25.293Z,1003.06
2016-06-29T02:35:55.287Z,1003.09
2016-06-29T02:36:25.325Z,1003.07
2016-06-29T02:36:55.357Z,1003.08
2016-06-29T02:37:25.328Z,1003.08
2016-06-29T02:37:55.364Z,1003.12
2016-06-29T02:38:25.412Z,1003.12
2016-06-29T02:38:55.382Z,1003.11
2016-06-29T02:39:25.417Z,1003.11
2016-06-29T02:39:55.417Z,1003.11
2016-06-29T02:40:25.449Z,1003.12
2016-06-29T02:40:55.467Z,1003.12
2016-06-29T02:41:25.450Z,1003.11
2016-06-29T02:41:55.490Z,1003.07
2016-06-29T02:42:25.495Z,1003.07
2016-06-29T02:42:55.511Z,1003.06
2016-06-29T02:43:25.527Z,1003.11
2016-06-29T02:43:55.534Z,1003.13
2016-06-29T02:44:24.968Z,1003.11
2016-06-29T02:44:55.585Z,1003.18
2016-06-29T02:45:25.587Z,1003.17
2016-06-29T02:45:55.604Z,1003.17
2016-06-29T02:46:25.841Z,1003.18
2016-06-29T02:46:55.626Z,1003.19
2016-06-29T02:47:25.653Z,1003.16
2016-06-29T02:47:55.668Z,1003.13
2016-06-29T02:48:25.693Z,1003.08
2016-06-29T02:48:55.695Z,1003.09
2016-06-29T02:49:25.712Z,1003.08
2016-06-29T02:49:55.774Z,1003.08
2016-06-29T02:50:25.759Z,1003.1
2016-06-29T02:50:55.745Z,1003.07
2016-06-29T02:51:25.796Z,1003.04
2016-06-29T02:51:55.837Z,1003.06
2016-06-29T02:52:25.819Z,1003
2016-06-29T02:52:55.833Z,1002.99
2016-06-29T02:53:25.815Z,1002.98
2016-06-29T02:53:55.838Z,1002.97
2016-06-29T02:54:25.844Z,1002.97
2016-06-29T02:54:55.866Z,1002.92
2016-06-29T02:55:25.893Z,1002.86
2016-06-29T02:55:55.901Z,1002.8
2016-06-29T02:56:25.901Z,1002.76
2016-06-29T02:56:55.935Z,1002.77
2016-06-29T02:57:25.922Z,1002.81
2016-06-29T02:57:55.957Z,1002.84
2016-06-29T02:58:25.971Z,1002.8
2016-06-29T02:58:55.993Z,1002.8
2016-06-29T02:59:26.024Z,1002.77
2016-06-29T02:59:56.041Z,1002.77
2016-06-29T03:00:26.057Z,1002.76
2016-06-29T03:00:56.077Z,1002.74
2016-06-29T03:01:26.065Z,1002.73
2016-06-29T03:01:56.081Z,1002.75
2016-06-29T03:02:26.126Z,1002.74
2016-06-29T03:02:56.107Z,1002.74
2016-06-29T03:03:26.149Z,1002.76
2016-06-29T03:03:56.127Z,1002.78
2016-06-29T03:04:26.387Z,1002.83
2016-06-29T03:04:56.167Z,1002.86
2016-06-29T03:05:26.200Z,1002.86
2016-06-29T03:05:56.213Z,1002.92
2016-06-29T03:06:25.614Z,1002.9
2016-06-29T03:06:56.234Z,1002.96
2016-06-29T03:07:26.266Z,1002.97
2016-06-29T03:07:56.294Z,1002.98
2016-06-29T03:08:26.280Z,1002.99
2016-06-29T03:08:56.294Z,1003
2016-06-29T03:09:26.315Z,1003
2016-06-29T03:09:56.329Z,1002.99
2016-06-29T03:10:26.356Z,1003.02
2016-06-29T03:10:56.356Z,1003.02
2016-06-29T03:11:25.769Z,1003
2016-06-29T03:11:56.394Z,1003.01
2016-06-29T03:12:26.404Z,1003.07
2016-06-29T03:12:56.414Z,1003.02
2016-06-29T03:13:26.431Z,1003.02
2016-06-29T03:13:56.461Z,1003
2016-06-29T03:14:26.500Z,1003.01
2016-06-29T03:14:56.465Z,1003.03
2016-06-29T03:15:26.518Z,1003.06
2016-06-29T03:15:56.511Z,1003.07
2016-06-29T03:16:26.538Z,1003.06
2016-06-29T03:16:56.547Z,1003.1
2016-06-29T03:17:26.559Z,1003.09
2016-06-29T03:17:56.584Z,1003.07
2016-06-29T03:18:26.566Z,1003.04
2016-06-29T03:18:56.618Z,1003.02
2016-06-29T03:19:26.620Z,1003.06
2016-06-29T03:19:56.635Z,1003.1
2016-06-29T03:20:26.037Z,1003.11
2016-06-29T03:20:56.054Z,1003.11
2016-06-29T03:21:26.678Z,1003.09
2016-06-29T03:21:56.737Z,1003.15
2016-06-29T03:22:26.696Z,1003.13
2016-06-29T03:22:56.732Z,1003.1
2016-06-29T03:23:26.715Z,1003.1
2016-06-29T03:23:56.742Z,1003.11
2016-06-29T03:24:26.792Z,1003.07
2016-06-29T03:24:56.798Z,1003.1
2016-06-29T03:25:26.794Z,1003.1
2016-06-29T03:25:56.804Z,1003.05
2016-06-29T03:26:26.797Z,1003.07
2016-06-29T03:26:56.278Z,1003.05
2016-06-29T03:27:26.857Z,1003
2016-06-29T03:27:56.877Z,1003.03
2016-06-29T03:28:26.894Z,1003.02
2016-06-29T03:28:56.907Z,1003.03
2016-06-29T03:29:26.314Z,1003.05
2016-06-29T03:29:56.910Z,1003.1
2016-06-29T03:30:26.946Z,1003.13
2016-06-29T03:30:56.938Z,1003.15
2016-06-29T03:31:26.946Z,1003.25
2016-06-29T03:31:56.992Z,1003.25
2016-06-29T03:32:27.011Z,1003.29
2016-06-29T03:32:57.014Z,1003.29
2016-06-29T03:33:27.022Z,1003.28
2016-06-29T03:33:57.044Z,1003.27
2016-06-29T03:34:27.069Z,1003.27
2016-06-29T03:34:57.095Z,1003.29
2016-06-29T03:35:27.119Z,1003.27
2016-06-29T03:35:57.114Z,1003.27
2016-06-29T03:36:27.111Z,1003.27
2016-06-29T03:36:57.115Z,1003.25
2016-06-29T03:37:26.536Z,1003.23
2016-06-29T03:37:57.171Z,1003.27
2016-06-29T03:38:26.554Z,1003.27
2016-06-29T03:38:57.184Z,1003.24
2016-06-29T03:39:26.581Z,1003.21
2016-06-29T03:39:56.686Z,1003.21
2016-06-29T03:40:27.274Z,1003.2
2016-06-29T03:40:57.263Z,1003.2
2016-06-29T03:41:26.047Z,1003.22
2016-06-29T03:41:57.291Z,1003.26
2016-06-29T03:42:27.317Z,1003.28
2016-06-29T03:42:57.311Z,1003.34
2016-06-29T03:43:27.321Z,1003.31
2016-06-29T03:43:57.340Z,1003.33
2016-06-29T03:44:27.368Z,1003.33
2016-06-29T03:44:57.378Z,1003.28
2016-06-29T03:45:27.377Z,1003.26
2016-06-29T03:45:57.419Z,1003.3
2016-06-29T03:46:27.421Z,1003.28
2016-06-29T03:46:57.502Z,1003.28
2016-06-29T03:47:27.475Z,1003.28
2016-06-29T03:47:57.491Z,1003.27
2016-06-29T03:48:27.490Z,1003.29
2016-06-29T03:48:57.519Z,1003.25
2016-06-29T03:49:27.502Z,1003.28
2016-06-29T03:49:57.543Z,1003.26
2016-06-29T03:50:27.544Z,1003.3
2016-06-29T03:50:57.547Z,1003.26
2016-06-29T03:51:27.583Z,1003.26
2016-06-29T03:51:57.577Z,1003.24
2016-06-29T03:52:27.597Z,1003.28
2016-06-29T03:52:57.614Z,1003.26
2016-06-29T03:53:27.743Z,1003.26
2016-06-29T03:53:57.058Z,1003.23
2016-06-29T03:54:27.700Z,1003.21
2016-06-29T03:54:57.700Z,1003.2
2016-06-29T03:55:27.688Z,1003.19
2016-06-29T03:55:57.691Z,1003.18
2016-06-29T03:56:27.722Z,1003.2
2016-06-29T03:56:57.110Z,1003.18
2016-06-29T03:57:27.778Z,1003.19
2016-06-29T03:57:57.765Z,1003.17
2016-06-29T03:58:27.765Z,1003.14
2016-06-29T03:58:57.768Z,1003.14
2016-06-29T03:59:27.210Z,1003.15
2016-06-29T03:59:57.839Z,1003.15
2016-06-29T04:00:27.855Z,1003.17
2016-06-29T04:00:57.852Z,1003.15
2016-06-29T04:01:27.864Z,1003.15
2016-06-29T04:01:57.856Z,1003.23
2016-06-29T04:02:27.890Z,1003.19
2016-06-29T04:02:57.918Z,1003.22
2016-06-29T04:03:27.929Z,1003.23
2016-06-29T04:03:57.949Z,1003.24
2016-06-29T04:04:27.948Z,1003.26
2016-06-29T04:04:57.975Z,1003.31
2016-06-29T04:05:28.006Z,1003.31
2016-06-29T04:05:57.427Z,1003.32
2016-06-29T04:06:28.020Z,1003.3
2016-06-29T04:06:58.028Z,1003.32
2016-06-29T04:07:28.012Z,1003.33
2016-06-29T04:07:58.066Z,1003.32
2016-06-29T04:08:28.088Z,1003.32
2016-06-29T04:08:58.110Z,1003.33
2016-06-29T04:09:28.114Z,1003.35
2016-06-29T04:09:58.122Z,1003.38
2016-06-29T04:10:28.158Z,1003.33
2016-06-29T04:10:58.143Z,1003.38
2016-06-29T04:11:28.186Z,1003.37
2016-06-29T04:11:58.203Z,1003.36
2016-06-29T04:12:28.189Z,1003.38
2016-06-29T04:12:58.202Z,1003.38
2016-06-29T04:13:28.206Z,1003.41
2016-06-29T04:13:57.629Z,1003.39
2016-06-29T04:14:27.692Z,1003.39
2016-06-29T04:14:58.287Z,1003.37
2016-06-29T04:15:27.700Z,1003.39
2016-06-29T04:15:58.298Z,1003.39
2016-06-29T04:16:28.337Z,1003.37
2016-06-29T04:16:58.338Z,1003.4
2016-06-29T04:17:28.353Z,1003.4
2016-06-29T04:17:58.364Z,1003.42
2016-06-29T04:18:28.385Z,1003.43
2016-06-29T04:18:58.404Z,1003.43
2016-06-29T04:19:28.421Z,1003.46
2016-06-29T04:19:58.430Z,1003.46
2016-06-29T04:20:28.474Z,1003.49
2016-06-29T04:20:58.474Z,1003.46
2016-06-29T04:21:28.456Z,1003.47
2016-06-29T04:21:58.503Z,1003.47
2016-06-29T04:22:28.497Z,1003.46
2016-06-29T04:22:58.519Z,1003.5
2016-06-29T04:23:28.508Z,1003.5
2016-06-29T04:23:58.580Z,1003.49
2016-06-29T04:24:28.569Z,1003.45
2016-06-29T04:24:58.602Z,1003.48
2016-06-29T04:25:28.598Z,1003.53
2016-06-29T04:25:58.611Z,1003.5
2016-06-29T04:26:28.606Z,1003.48
2016-06-29T04:26:58.653Z,1003.51
2016-06-29T04:27:28.678Z,1003.53
2016-06-29T04:27:58.686Z,1003.51
2016-06-29T04:28:28.701Z,1003.52
2016-06-29T04:28:58.730Z,1003.54
2016-06-29T04:29:28.722Z,1003.5
2016-06-29T04:29:58.706Z,1003.5
2016-06-29T04:30:28.738Z,1003.46
2016-06-29T04:30:58.779Z,1003.46
2016-06-29T04:31:28.748Z,1003.51
2016-06-29T04:31:58.770Z,1003.51
2016-06-29T04:32:28.776Z,1003.52
2016-06-29T04:32:58.820Z,1003.51
2016-06-29T04:33:28.864Z,1003.5
2016-06-29T04:33:58.220Z,1003.52
2016-06-29T04:34:28.857Z,1003.54
2016-06-29T04:34:58.884Z,1003.61
2016-06-29T04:35:28.889Z,1003.5
2016-06-29T04:35:58.894Z,1003.54
2016-06-29T04:36:28.911Z,1003.54
2016-06-29T04:36:58.934Z,1003.52
2016-06-29T04:37:28.952Z,1003.55
2016-06-29T04:37:58.964Z,1003.6
2016-06-29T04:38:29.000Z,1003.59
2016-06-29T04:38:58.981Z,1003.63
2016-06-29T04:39:28.988Z,1003.59
2016-06-29T04:39:59.013Z,1003.58
2016-06-29T04:40:29.014Z,1003.6
2016-06-29T04:40:59.036Z,1003.58
2016-06-29T04:41:29.046Z,1003.56
2016-06-29T04:41:59.062Z,1003.59
2016-06-29T04:42:29.119Z,1003.59
2016-06-29T04:42:59.362Z,1003.58
2016-06-29T04:43:29.136Z,1003.6
2016-06-29T04:43:59.147Z,1003.58
2016-06-29T04:44:29.183Z,1003.59
2016-06-29T04:44:59.183Z,1003.62
2016-06-29T04:45:29.209Z,1003.62
2016-06-29T04:45:59.178Z,1003.58
2016-06-29T04:46:29.216Z,1003.62
2016-06-29T04:46:59.219Z,1003.63
2016-06-29T04:47:29.264Z,1003.66
2016-06-29T04:47:59.253Z,1003.66
2016-06-29T04:48:28.685Z,1003.72
2016-06-29T04:48:59.272Z,1003.73
2016-06-29T04:49:29.299Z,1003.73
2016-06-29T04:49:59.319Z,1003.74
2016-06-29T04:50:29.332Z,1003.73
2016-06-29T04:50:59.347Z,1003.72
2016-06-29T04:51:29.366Z,1003.74
2016-06-29T04:51:59.409Z,1003.74
2016-06-29T04:52:29.409Z,1003.75
2016-06-29T04:52:59.423Z,1003.74
2016-06-29T04:53:29.423Z,1003.73
2016-06-29T04:53:59.422Z,1003.7
2016-06-29T04:54:29.469Z,1003.68
2016-06-29T04:54:59.469Z,1003.72
2016-06-29T04:55:29.470Z,1003.74
2016-06-29T04:55:58.902Z,1003.74
2016-06-29T04:56:29.532Z,1003.76
2016-06-29T04:56:59.529Z,1003.74
2016-06-29T04:57:29.535Z,1003.78
2016-06-29T04:57:59.549Z,1003.79
2016-06-29T04:58:29.563Z,1003.79
2016-06-29T04:58:59.600Z,1003.75
2016-06-29T04:59:29.611Z,1003.77
2016-06-29T04:59:59.606Z,1003.81
2016-06-29T05:00:29.624Z,1003.8
2016-06-29T05:00:59.636Z,1003.83
2016-06-29T05:01:29.632Z,1003.87
2016-06-29T05:01:59.679Z,1003.83
2016-06-29T05:02:29.695Z,1003.85
2016-06-29T05:02:59.705Z,1003.81
2016-06-29T05:03:29.783Z,1003.79
2016-06-29T05:03:59.740Z,1003.83
2016-06-29T05:04:29.755Z,1003.79
2016-06-29T05:04:59.767Z,1003.76
2016-06-29T05:05:29.805Z,1003.76
2016-06-29T05:05:59.826Z,1003.76
2016-06-29T05:06:29.801Z,1003.74
2016-06-29T05:06:59.842Z,1003.81
2016-06-29T05:07:29.838Z,1003.81
2016-06-29T05:07:59.867Z,1003.83
2016-06-29T05:08:29.286Z,1003.79
2016-06-29T05:08:59.890Z,1003.8
2016-06-29T05:09:29.894Z,1003.79
2016-06-29T05:09:59.935Z,1003.76
2016-06-29T05:10:29.969Z,1003.81
2016-06-29T05:10:59.987Z,1003.79
2016-06-29T05:11:29.348Z,1003.8
2016-06-29T05:11:59.362Z,1003.81
2016-06-29T05:12:29.980Z,1003.82
2016-06-29T05:13:00.073Z,1003.86
2016-06-29T05:13:30.029Z,1003.85
2016-06-29T05:14:00.051Z,1003.9
2016-06-29T05:14:30.074Z,1003.85
2016-06-29T05:15:00.081Z,1003.86
2016-06-29T05:15:30.087Z,1003.89
2016-06-29T05:16:00.097Z,1003.85
2016-06-29T05:16:30.123Z,1003.84
2016-06-29T05:17:00.128Z,1003.87
2016-06-29T05:17:30.140Z,1003.86
2016-06-29T05:18:00.163Z,1003.85
2016-06-29T05:18:30.170Z,1003.87
2016-06-29T05:19:00.190Z,1003.89
2016-06-29T05:19:30.197Z,1003.88
2016-06-29T05:20:00.251Z,1003.91
2016-06-29T05:20:30.242Z,1003.87
2016-06-29T05:21:00.236Z,1003.86
2016-06-29T05:21:30.285Z,1003.9
2016-06-29T05:22:00.311Z,1003.98
2016-06-29T05:22:30.303Z,1003.94
2016-06-29T05:23:00.345Z,1003.94
2016-06-29T05:23:30.298Z,1003.95
2016-06-29T05:24:00.420Z,1003.91
2016-06-29T05:24:30.335Z,1003.9
2016-06-29T05:25:00.373Z,1003.92
2016-06-29T05:25:30.386Z,1003.87
2016-06-29T05:26:00.405Z,1003.89
2016-06-29T05:26:30.405Z,1003.91
2016-06-29T05:26:59.842Z,1003.94
2016-06-29T05:27:30.472Z,1003.88
2016-06-29T05:28:00.469Z,1003.88
2016-06-29T05:28:29.897Z,1003.89
2016-06-29T05:29:00.517Z,1003.91
2016-06-29T05:29:30.508Z,1003.95
2016-06-29T05:30:00.533Z,1003.91
2016-06-29T05:30:30.784Z,1003.9
2016-06-29T05:31:00.576Z,1003.86
2016-06-29T05:31:30.559Z,1003.89
2016-06-29T05:32:00.579Z,1003.86
2016-06-29T05:32:30.594Z,1003.85
2016-06-29T05:33:00.641Z,1003.83
2016-06-29T05:33:30.655Z,1003.87
2016-06-29T05:34:00.672Z,1003.88
2016-06-29T05:34:30.082Z,1003.96
2016-06-29T05:35:00.676Z,1003.98
2016-06-29T05:35:30.730Z,1003.95
2016-06-29T05:36:00.712Z,1003.93
2016-06-29T05:36:30.721Z,1003.87
2016-06-29T05:37:00.790Z,1003.9
2016-06-29T05:37:30.757Z,1003.93
2016-06-29T05:38:00.788Z,1003.94
2016-06-29T05:38:30.791Z,1003.92
2016-06-29T05:39:00.859Z,1003.94
2016-06-29T05:39:30.829Z,1003.99
2016-06-29T05:40:00.866Z,1003.99
2016-06-29T05:40:30.837Z,1004.01
2016-06-29T05:41:00.276Z,1004.02
2016-06-29T05:41:30.862Z,1004.01
2016-06-29T05:42:00.908Z,1004
2016-06-29T05:42:30.913Z,1004.03
2016-06-29T05:43:00.942Z,1004.04
2016-06-29T05:43:30.965Z,1004.06
2016-06-29T05:44:00.980Z,1004.05
2016-06-29T05:44:31.040Z,1004.06
2016-06-29T05:45:01.063Z,1004.09
2016-06-29T05:45:31.021Z,1004.02
2016-06-29T05:46:00.418Z,1004.01
2016-06-29T05:46:30.409Z,1004.07
2016-06-29T05:47:01.069Z,1004.04
2016-06-29T05:47:31.091Z,1004.01
2016-06-29T05:48:01.072Z,1004.01
2016-06-29T05:48:31.130Z,1004.04
2016-06-29T05:49:01.180Z,1004.08
2016-06-29T05:49:31.096Z,1004.07
2016-06-29T05:50:01.117Z,1004
2016-06-29T05:50:31.154Z,1004.11
2016-06-29T05:51:01.161Z,1004.09
2016-06-29T05:51:31.217Z,1004.18
2016-06-29T05:52:01.221Z,1004.17
2016-06-29T05:52:31.198Z,1004.16
2016-06-29T05:53:01.229Z,1004.16
2016-06-29T05:53:31.265Z,1004.11
2016-06-29T05:54:01.282Z,1004.13
2016-06-29T05:54:30.646Z,1004.15
2016-06-29T05:55:01.301Z,1004.16
2016-06-29T05:55:31.315Z,1004.18
2016-06-29T05:56:01.328Z,1004.23
2016-06-29T05:56:31.344Z,1004.23
2016-06-29T05:57:01.344Z,1004.21
2016-06-29T05:57:31.372Z,1004.26
2016-06-29T05:58:01.386Z,1004.26
2016-06-29T05:58:31.400Z,1004.24
2016-06-29T05:59:01.464Z,1004.25
2016-06-29T05:59:31.475Z,1004.3
2016-06-29T06:00:01.483Z,1004.3
2016-06-29T06:00:31.479Z,1004.26
2016-06-29T06:01:01.467Z,1004.26
2016-06-29T06:01:31.492Z,1004.33
2016-06-29T06:02:00.962Z,1004.35
2016-06-29T06:02:31.514Z,1004.33
2016-06-29T06:03:01.569Z,1004.31
2016-06-29T06:03:31.554Z,1004.3
2016-06-29T06:04:01.587Z,1004.3
2016-06-29T06:04:30.396Z,1004.29